Главная страница
METAR-TAF:

METAR-TAF

Аэропорты :

Гуам

Хагатна, Гуам, США

широта: 13-29N, долгота: 144-48E, высота над уровнем моря: 91 м

Текущие метеонаблюдения

Эта сводка был подготовлена 49 минут назад, в 06:54 UTC
Ветер 10 Узел от восточно-северо-восточный
Температура 30°C
Влажность 70%
Давление 1009 hPa
Видимость: 16.1 км
ясное небо

METAR: PGUM 130654Z 06010KT 10SM CLR 30/24 A2980 RMK AO2 SLP083 T03000244

Время: 17:43 (07:43 UTC)

Прогноз

Эта сводка был подготовлена 2 часа и 20 минут назад, в 05:23 UTC
Прогноз действительный с 13-го 06 UTC до 14-го 12 UTC
Ветер 12 Узел от восточный
Видимость: 10 км
Отдельные облака на высоте 2500 фута
С 13-го 0800 UTC
Ветер 8 Узел от восточно-северо-восточный
Видимость: 10 км
Отдельные облака на высоте 2200 фута
С 14-го 0100 UTC
Ветер 15 Узел от восточно-северо-восточный
Видимость: 10 км
Отдельные облака на высоте 2400 фута

TAF: PGUM 130523Z 1306/1412 08012KT P6SM SCT025 FM130800 07008KT P6SM SCT022 FM140100 07015KT P6SM SCT024

Метеонаблюдения и прогнозы для более 4000 аэропортов (сводки METAR и TAF).

Имеющиеся станции представлены на карте желтыми и красными точками.

Чтобы увидеть название станции, наведите на нее мышь.

Затем щелкните, чтобы увидеть метеонаблюдения и метеопрогнозы.

Управление картой: чтобы увеличить масштаб, щелкните зеленые кнопки с черным крестиком; чтобы уменьшить масштаб, щелкните зеленую кнопку с тире; для просмотра соседних карт щелкайте зеленые стрелки.


METAR-TAF: